Short Hills, New Jersey
Current Conditions -  °F | °C
As of 11:45 AM on Tuesday 27 Jan 2015 (Local Time) from KMMU Reporting Station
Overcast Overcast  
Wind Chill: 13°   Ceiling: 5000
Heat Index: 25°   Visibility: 7mi
Dew Point: 16°   Wind: 13mph
Humidity: 69%   Direction: 340°NNW
Pressure: 29.7"   Gusts: 21mph
Location:  40.75°N, 74.33°W
Report Text: KMMU 271645Z 34011G18KT 7SM OVC050 M04/M09 A2970
Loading
Personal Weather Stations






























Interactive Weather Map New forecast layout! Learn more

10-Day Weather Forecast

Advertisements
Track Severe Weather on mobile